Time;durP1;ratioP1;P1;durP2;ratioP2;P2;SDS_P1;SDS_P2;PMS_P1;PMS_P2;Temp;Humidity;BMP_temperature;BMP_pressure;BME280_temperature;BME280_humidity;BME280_pressure;Samples;Min_cycle;Max_cycle;Signal;HPM_P1;HPM_P2
2022/01/10 00:02:22;;;;;;;;;;;2.60;98.20;;;;;;5060644;28;19909;-68
2022/01/10 00:04:47;;;;;;;;;;;2.50;98.30;;;;;;5061001;28;19909;-68
2022/01/10 00:07:13;;;;;;;;;;;2.60;98.20;;;;;;5041970;28;19928;-68
2022/01/10 00:09:39;;;;;;;;;;;2.60;98.10;;;;;;5042309;28;19909;-67
2022/01/10 00:12:05;;;;;;;;;;;2.70;98.10;;;;;;5042186;28;20075;-68
2022/01/10 00:14:31;;;;;;;;;;;2.60;98.10;;;;;;5042021;28;19944;-68
2022/01/10 00:16:56;;;;;;;;;;;2.70;98.10;;;;;;5054631;28;19947;-68
2022/01/10 00:19:22;;;;;;;;;;;2.70;98.00;;;;;;5054902;28;19917;-68
2022/01/10 00:21:48;;;;;;;;;;;2.70;98.00;;;;;;5077172;28;19916;-68
2022/01/10 00:24:14;;;;;;;;;;;2.70;98.00;;;;;;5061778;28;20108;-68
2022/01/10 00:26:40;;;;;;;;;;;2.70;98.00;;;;;;5062022;28;19919;-68
2022/01/10 00:29:05;;;;;;;;;;;2.70;98.00;;;;;;5077416;28;19909;-67
2022/01/10 00:31:31;;;;;;;;;;;2.70;98.00;;;;;;5061962;28;19923;-68
2022/01/10 00:33:56;;;;;;;;;;;2.70;97.90;;;;;;5061915;28;19931;-68
2022/01/10 00:36:22;;;;;;;;;;;2.70;98.00;;;;;;5061292;28;20169;-67
2022/01/10 00:38:48;;;;;;;;;;;2.70;98.00;;;;;;5062034;28;19908;-68
2022/01/10 00:41:14;;;;;;;;;;;2.70;98.10;;;;;;5062035;28;19980;-68
2022/01/10 00:43:45;;;;;;;;;;;2.70;98.10;;;;;;5061943;28;19976;-68
2022/01/10 00:46:11;;;;;;;;;;;2.70;98.00;;;;;;5061616;28;19909;-68
2022/01/10 00:48:37;;;;;;;;;;;2.60;98.20;;;;;;5061744;28;20066;-68
2022/01/10 00:51:02;;;;;;;;;;;2.60;98.30;;;;;;5061961;28;19916;-68
2022/01/10 00:53:28;;;;;;;;;;;2.60;98.30;;;;;;5061975;28;19919;-68
2022/01/10 00:55:54;;;;;;;;;;;2.50;98.40;;;;;;5061417;28;19909;-68
2022/01/10 00:58:19;;;;;;;;;;;2.40;98.50;;;;;;5061656;28;20093;-69
2022/01/10 01:00:45;;;;;;;;;;;2.60;98.40;;;;;;5061734;28;19966;-68
2022/01/10 01:03:11;;;;;;;;;;;2.60;98.30;;;;;;5059539;28;19908;-68
2022/01/10 01:05:42;;;;;;;;;;;2.60;98.20;;;;;;5061274;28;19927;-68
2022/01/10 01:08:09;;;;;;;;;;;2.60;98.20;;;;;;5061514;28;20231;-69
2022/01/10 01:15:57;;;;;;;;;;;2.60;98.30;;;;;;5065396;28;19975;-68
2022/01/10 01:24:01;;;;;;;;;;;2.30;98.90;;;;;;5065377;28;19919;-67
2022/01/10 01:26:32;;;;;;;;;;;2.40;99.00;;;;;;5064971;28;19979;-67
2022/01/10 01:28:58;;;;;;;;;;;2.40;98.90;;;;;;5064054;28;19979;-67
2022/01/10 01:31:23;;;;;;;;;;;2.40;98.80;;;;;;5064939;28;19939;-67
2022/01/10 01:33:49;;;;;;;;;;;2.50;98.70;;;;;;5065196;28;20227;-67
2022/01/10 01:36:23;;;;;;;;;;;2.50;98.70;;;;;;5064655;28;19917;-67
2022/01/10 01:38:50;;;;;;;;;;;2.50;98.70;;;;;;5063973;28;19912;-67
2022/01/10 01:43:47;;;;;;;;;;;2.40;98.60;;;;;;5064642;28;19935;-67
2022/01/10 01:46:13;;;;;;;;;;;2.30;98.70;;;;;;5064576;28;20120;-68
2022/01/10 01:48:39;;;;;;;;;;;2.10;99.00;;;;;;5064592;28;19946;-68
2022/01/10 01:51:04;;;;;;;;;;;2.00;99.30;;;;;;5065265;28;19959;-67
2022/01/10 01:53:30;;;;;;;;;;;2.00;99.40;;;;;;5064840;28;19984;-67
2022/01/10 01:55:59;;;;;;;;;;;1.90;99.40;;;;;;5063565;28;19909;-67
2022/01/10 01:58:25;;;;;;;;;;;1.90;99.40;;;;;;5065288;28;19974;-68
2022/01/10 02:00:51;;;;;;;;;;;1.80;99.60;;;;;;5065231;28;19920;-68
2022/01/10 02:03:17;;;;;;;;;;;1.70;99.80;;;;;;5062407;28;19917;-67
2022/01/10 02:05:42;;;;;;;;;;;1.60;99.90;;;;;;5064740;28;20004;-67
2022/01/10 02:08:09;;;;;;;;;;;1.50;99.90;;;;;;5064834;28;19909;-68
2022/01/10 02:10:35;;;;;;;;;;;1.50;99.90;;;;;;5064856;28;19908;-67
2022/01/10 02:13:01;;;;;;;;;;;1.40;99.90;;;;;;5064360;28;19912;-67
2022/01/10 02:15:42;;;;;;;;;;;1.40;99.90;;;;;;5063854;28;20177;-68
2022/01/10 02:18:07;;;;;;;;;;;1.40;99.90;;;;;;5063855;28;19969;-67
2022/01/10 02:20:33;;;;;;;;;;;1.30;99.90;;;;;;5064084;28;19971;-68
2022/01/10 02:22:59;;;;;;;;;;;1.40;99.90;;;;;;5064255;28;19991;-68
2022/01/10 02:25:24;;;;;;;;;;;1.40;99.90;;;;;;5062910;28;20015;-68
2022/01/10 02:27:50;;;;;;;;;;;1.40;99.90;;;;;;5064166;28;19908;-68
2022/01/10 02:30:16;;;;;;;;;;;1.40;99.90;;;;;;5063429;28;20248;-68
2022/01/10 02:32:42;;;;;;;;;;;1.40;99.90;;;;;;5043725;28;20333;-68
2022/01/10 02:35:45;;;;;;;;;;;1.50;99.90;;;;;;5043940;28;19913;-68
2022/01/10 02:38:10;;;;;;;;;;;1.40;99.90;;;;;;5043621;28;19924;-68
2022/01/10 02:40:36;;;;;;;;;;;1.40;99.90;;;;;;5044170;28;19933;-68
2022/01/10 02:43:06;;;;;;;;;;;1.40;99.90;;;;;;5044125;28;19916;-68
2022/01/10 02:45:31;;;;;;;;;;;1.40;99.90;;;;;;5043684;28;19909;-68
2022/01/10 02:47:57;;;;;;;;;;;1.50;99.90;;;;;;5055913;28;19920;-68
2022/01/10 02:50:23;;;;;;;;;;;1.50;99.90;;;;;;5063794;28;19909;-67
2022/01/10 02:52:48;;;;;;;;;;;1.50;99.90;;;;;;5063935;28;19934;-68
2022/01/10 02:55:14;;;;;;;;;;;1.50;99.90;;;;;;5063691;28;19909;-68
2022/01/10 02:57:40;;;;;;;;;;;1.50;99.90;;;;;;5062665;28;19909;-67
2022/01/10 03:00:16;;;;;;;;;;;1.50;99.90;;;;;;5062390;28;19909;-67
2022/01/10 03:02:43;;;;;;;;;;;1.50;99.90;;;;;;5063306;28;19919;-67
2022/01/10 03:05:09;;;;;;;;;;;1.50;99.90;;;;;;5060725;28;19969;-67
2022/01/10 03:07:35;;;;;;;;;;;1.50;99.90;;;;;;5063350;28;19909;-67
2022/01/10 03:10:01;;;;;;;;;;;1.60;99.90;;;;;;5063386;28;19988;-67
2022/01/10 03:12:30;;;;;;;;;;;1.60;99.90;;;;;;5063396;28;20083;-67
2022/01/10 03:14:57;;;;;;;;;;;1.70;99.90;;;;;;5063298;28;19928;-67
2022/01/10 03:17:22;;;;;;;;;;;1.80;99.90;;;;;;5063181;28;20002;-67
2022/01/10 03:19:48;;;;;;;;;;;1.80;99.90;;;;;;5062938;28;19917;-68
2022/01/10 03:22:14;;;;;;;;;;;1.90;99.90;;;;;;5063148;28;19975;-67
2022/01/10 03:24:39;;;;;;;;;;;1.90;99.90;;;;;;5062849;28;19909;-68
2022/01/10 03:27:05;;;;;;;;;;;1.90;99.90;;;;;;5062052;28;19909;-68
2022/01/10 03:29:31;;;;;;;;;;;1.90;99.90;;;;;;5063273;28;19939;-67
2022/01/10 03:31:57;;;;;;;;;;;1.90;99.90;;;;;;5061712;28;19939;-67
2022/01/10 03:34:22;;;;;;;;;;;2.00;99.90;;;;;;5062836;28;19931;-67
2022/01/10 03:36:48;;;;;;;;;;;2.00;99.70;;;;;;5061695;28;19912;-67
2022/01/10 03:39:14;;;;;;;;;;;2.10;99.70;;;;;;5062918;28;20076;-67
2022/01/10 03:41:40;;;;;;;;;;;2.10;99.60;;;;;;5063262;28;19909;-67
2022/01/10 03:44:06;;;;;;;;;;;2.00;99.60;;;;;;5062757;28;19988;-68
2022/01/10 03:46:33;;;;;;;;;;;2.00;99.80;;;;;;5062090;28;19931;-67
2022/01/10 03:49:02;;;;;;;;;;;2.00;99.90;;;;;;5062354;28;19938;-68
2022/01/10 03:51:27;;;;;;;;;;;1.90;99.90;;;;;;5061415;28;20003;-68
2022/01/10 03:53:53;;;;;;;;;;;2.00;99.90;;;;;;5061298;28;19920;-69
2022/01/10 03:56:19;;;;;;;;;;;2.00;99.90;;;;;;5062223;28;20123;-68
2022/01/10 03:58:45;;;;;;;;;;;2.00;99.90;;;;;;5062512;28;19909;-68
2022/01/10 04:01:12;;;;;;;;;;;2.10;99.90;;;;;;5062463;28;20333;-68
2022/01/10 04:03:38;;;;;;;;;;;2.00;99.90;;;;;;5061014;28;19979;-67
2022/01/10 04:06:04;;;;;;;;;;;2.10;99.90;;;;;;5061899;28;19944;-67
2022/01/10 04:08:30;;;;;;;;;;;2.10;99.90;;;;;;5062180;28;19915;-69
2022/01/10 04:10:55;;;;;;;;;;;2.10;99.80;;;;;;5062141;28;20085;-68
2022/01/10 04:13:23;;;;;;;;;;;2.20;99.70;;;;;;5062192;28;19913;-68
2022/01/10 04:15:49;;;;;;;;;;;2.20;99.70;;;;;;5061725;28;20200;-68
2022/01/10 04:18:14;;;;;;;;;;;2.10;99.80;;;;;;5062506;28;19988;-68
2022/01/10 04:20:41;;;;;;;;;;;2.10;99.80;;;;;;5062273;28;19908;-69
2022/01/10 04:23:07;;;;;;;;;;;2.10;99.80;;;;;;5062993;28;19946;-68
2022/01/10 04:25:33;;;;;;;;;;;2.10;99.90;;;;;;5062839;28;19913;-68
2022/01/10 04:27:58;;;;;;;;;;;2.10;99.90;;;;;;5062964;28;19912;-68
2022/01/10 04:30:24;;;;;;;;;;;2.10;99.90;;;;;;5062930;28;20166;-68
2022/01/10 04:32:50;;;;;;;;;;;2.10;99.90;;;;;;5062063;28;19938;-67
2022/01/10 04:35:15;;;;;;;;;;;2.10;99.90;;;;;;5061247;28;19909;-67
2022/01/10 04:37:41;;;;;;;;;;;2.10;99.90;;;;;;5062691;28;19912;-68
2022/01/10 04:40:07;;;;;;;;;;;2.20;99.90;;;;;;5063044;28;19947;-68
2022/01/10 04:42:33;;;;;;;;;;;2.20;99.90;;;;;;5062853;28;19913;-68
2022/01/10 04:44:59;;;;;;;;;;;2.20;99.90;;;;;;5062629;28;19915;-69
2022/01/10 04:47:24;;;;;;;;;;;2.20;99.90;;;;;;5061158;28;19981;-68
2022/01/10 04:52:34;;;;;;;;;;;2.20;99.90;;;;;;5062775;28;19919;-68
2022/01/10 04:55:00;;;;;;;;;;;2.20;99.90;;;;;;5062478;28;20204;-68
2022/01/10 04:57:26;;;;;;;;;;;2.10;99.90;;;;;;5061615;28;19909;-68
2022/01/10 04:59:51;;;;;;;;;;;2.10;99.90;;;;;;5062684;28;19908;-68
2022/01/10 05:02:17;;;;;;;;;;;2.10;99.90;;;;;;5062623;28;20189;-68
2022/01/10 05:04:43;;;;;;;;;;;2.10;99.90;;;;;;5060985;28;19939;-68
2022/01/10 05:07:09;;;;;;;;;;;2.20;99.90;;;;;;5062570;28;19955;-68
2022/01/10 05:09:34;;;;;;;;;;;2.20;99.90;;;;;;5061341;28;19920;-67
2022/01/10 05:12:00;;;;;;;;;;;2.20;99.90;;;;;;5059674;28;19913;-68
2022/01/10 05:14:26;;;;;;;;;;;2.20;99.90;;;;;;5062205;28;19915;-68
2022/01/10 05:16:52;;;;;;;;;;;2.30;99.90;;;;;;5062404;28;19908;-68
2022/01/10 05:19:17;;;;;;;;;;;2.30;99.90;;;;;;5062183;28;19916;-69
2022/01/10 05:21:43;;;;;;;;;;;2.30;99.90;;;;;;5057256;28;19927;-67
2022/01/10 05:24:09;;;;;;;;;;;2.30;99.90;;;;;;5062292;28;19909;-67
2022/01/10 05:26:35;;;;;;;;;;;2.30;99.90;;;;;;5060413;28;19909;-66
2022/01/10 05:29:01;;;;;;;;;;;2.30;99.80;;;;;;5061279;28;20200;-66
2022/01/10 05:31:28;;;;;;;;;;;2.30;99.80;;;;;;5062205;28;20124;-67
2022/01/10 05:33:55;;;;;;;;;;;2.30;99.80;;;;;;5062164;28;19931;-67
2022/01/10 05:36:20;;;;;;;;;;;2.20;99.60;;;;;;5060406;28;20112;-67
2022/01/10 05:38:46;;;;;;;;;;;2.20;99.60;;;;;;5044631;28;19940;-67
2022/01/10 05:41:12;;;;;;;;;;;2.30;99.70;;;;;;5061095;28;19939;-67
2022/01/10 05:43:38;;;;;;;;;;;2.20;99.70;;;;;;5062074;28;20216;-67
2022/01/10 05:46:07;;;;;;;;;;;2.10;99.90;;;;;;5061579;28;19996;-67
2022/01/10 05:48:34;;;;;;;;;;;2.20;99.90;;;;;;5062261;28;19909;-67
2022/01/10 05:51:00;;;;;;;;;;;2.10;99.90;;;;;;5082186;23;19943;-71
2022/01/10 05:53:25;;;;;;;;;;;2.10;99.90;;;;;;5061817;28;19952;-68
2022/01/10 05:55:51;;;;;;;;;;;2.20;99.90;;;;;;5061483;28;20230;-69
2022/01/10 05:58:17;;;;;;;;;;;2.10;99.90;;;;;;5062045;28;19909;-69
2022/01/10 06:00:42;;;;;;;;;;;2.10;99.90;;;;;;5047386;28;19940;-69
2022/01/10 06:03:08;;;;;;;;;;;2.10;99.90;;;;;;5065150;28;19909;-69
2022/01/10 06:05:34;;;;;;;;;;;2.10;99.90;;;;;;5064710;28;19909;-69
2022/01/10 06:08:02;;;;;;;;;;;2.10;99.90;;;;;;5047701;28;19947;-69
2022/01/10 06:10:29;;;;;;;;;;;2.10;99.90;;;;;;5065345;28;20168;-69
2022/01/10 06:12:55;;;;;;;;;;;2.10;99.80;;;;;;5065220;28;19917;-69
2022/01/10 06:15:21;;;;;;;;;;;2.10;99.70;;;;;;5047316;28;19962;-69
2022/01/10 06:17:47;;;;;;;;;;;2.10;99.60;;;;;;5065288;28;19909;-69
2022/01/10 06:20:12;;;;;;;;;;;2.10;99.70;;;;;;5065190;28;20203;-69
2022/01/10 06:22:38;;;;;;;;;;;2.10;99.70;;;;;;5064593;28;19909;-69
2022/01/10 06:25:05;;;;;;;;;;;2.10;99.70;;;;;;5064754;28;20191;-69
2022/01/10 06:27:31;;;;;;;;;;;2.00;99.70;;;;;;5031076;28;19915;-70
2022/01/10 06:29:57;;;;;;;;;;;2.00;99.80;;;;;;5064972;28;20077;-70
2022/01/10 06:32:22;;;;;;;;;;;2.00;99.80;;;;;;5064930;28;19917;-70
2022/01/10 06:34:48;;;;;;;;;;;2.00;99.80;;;;;;5064449;28;20212;-70
2022/01/10 06:37:14;;;;;;;;;;;2.00;99.80;;;;;;5064238;28;19909;-70
2022/01/10 06:39:39;;;;;;;;;;;1.90;99.80;;;;;;5064505;28;19943;-70
2022/01/10 06:42:05;;;;;;;;;;;1.90;99.90;;;;;;5064920;28;19936;-70
2022/01/10 06:44:31;;;;;;;;;;;1.90;99.90;;;;;;5064479;28;19909;-70
2022/01/10 06:46:57;;;;;;;;;;;1.90;99.90;;;;;;5064757;28;20158;-70
2022/01/10 06:49:23;;;;;;;;;;;1.90;99.90;;;;;;5046418;28;19947;-70
2022/01/10 06:51:49;;;;;;;;;;;1.90;99.70;;;;;;5064667;28;19935;-70
2022/01/10 06:54:15;;;;;;;;;;;1.90;99.70;;;;;;5064264;28;20138;-70
2022/01/10 06:56:40;;;;;;;;;;;1.80;99.80;;;;;;5064717;28;20259;-70
2022/01/10 06:59:06;;;;;;;;;;;1.80;99.90;;;;;;5046844;28;19916;-70
2022/01/10 07:01:32;;;;;;;;;;;1.80;99.90;;;;;;5064746;28;19915;-70
2022/01/10 07:03:58;;;;;;;;;;;1.70;99.90;;;;;;5064526;28;20222;-69
2022/01/10 07:06:24;;;;;;;;;;;1.70;99.90;;;;;;5063834;28;19917;-69
2022/01/10 07:08:50;;;;;;;;;;;1.70;99.90;;;;;;5064888;28;19931;-69
2022/01/10 07:11:15;;;;;;;;;;;1.70;99.90;;;;;;5067003;28;19930;-70
2022/01/10 07:13:41;;;;;;;;;;;1.60;99.90;;;;;;5064281;28;20119;-69
2022/01/10 07:16:07;;;;;;;;;;;1.60;99.90;;;;;;5046295;28;19916;-70
2022/01/10 07:18:33;;;;;;;;;;;1.60;99.90;;;;;;5064928;28;20199;-70
2022/01/10 07:20:59;;;;;;;;;;;1.70;99.90;;;;;;5064570;28;19909;-70
2022/01/10 07:23:24;;;;;;;;;;;1.60;99.90;;;;;;5063307;28;19913;-69
2022/01/10 07:25:50;;;;;;;;;;;1.60;99.90;;;;;;5045760;28;19923;-70
2022/01/10 07:28:16;;;;;;;;;;;1.60;99.90;;;;;;5045850;28;20143;-69
2022/01/10 07:30:41;;;;;;;;;;;1.60;99.90;;;;;;5025951;28;20208;-70
2022/01/10 07:33:07;;;;;;;;;;;1.60;99.90;;;;;;5009602;28;19913;-70
2022/01/10 07:35:33;;;;;;;;;;;1.50;99.90;;;;;;5043320;28;20111;-70
2022/01/10 07:37:59;;;;;;;;;;;1.50;99.90;;;;;;5057925;28;19909;-70
2022/01/10 07:40:24;;;;;;;;;;;1.40;99.90;;;;;;5045529;28;20034;-70
2022/01/10 07:42:50;;;;;;;;;;;1.40;99.90;;;;;;5063610;28;19919;-69
2022/01/10 07:45:16;;;;;;;;;;;1.50;99.90;;;;;;5045252;28;19908;-70
2022/01/10 07:47:42;;;;;;;;;;;1.40;99.90;;;;;;5062791;28;19940;-70
2022/01/10 07:50:08;;;;;;;;;;;1.50;99.90;;;;;;5063063;28;20108;-70
2022/01/10 07:52:34;;;;;;;;;;;1.50;99.90;;;;;;5045281;28;19913;-70
2022/01/10 07:55:00;;;;;;;;;;;1.40;99.90;;;;;;5063040;28;19909;-69
2022/01/10 07:57:25;;;;;;;;;;;1.50;99.90;;;;;;5045425;28;19959;-70
2022/01/10 07:59:51;;;;;;;;;;;1.50;99.90;;;;;;5063043;28;19908;-70
2022/01/10 08:02:20;;;;;;;;;;;1.50;99.90;;;;;;5063059;28;20107;-68
2022/01/10 08:04:46;;;;;;;;;;;1.50;99.90;;;;;;5044424;28;19915;-70
2022/01/10 08:07:12;;;;;;;;;;;1.40;99.90;;;;;;5062879;28;19979;-70
2022/01/10 08:09:37;;;;;;;;;;;1.40;99.90;;;;;;5062643;28;19916;-70
2022/01/10 08:12:03;;;;;;;;;;;1.40;99.90;;;;;;5062460;28;19991;-70
2022/01/10 08:14:30;;;;;;;;;;;1.30;99.90;;;;;;5044973;28;19980;-69
2022/01/10 08:16:56;;;;;;;;;;;1.30;99.90;;;;;;5045116;28;20000;-69
2022/01/10 08:19:22;;;;;;;;;;;1.30;99.90;;;;;;5045087;28;19967;-70
2022/01/10 08:21:48;;;;;;;;;;;1.30;99.90;;;;;;5044487;28;19908;-69
2022/01/10 08:24:13;;;;;;;;;;;1.30;99.90;;;;;;5044634;28;20076;-69
2022/01/10 08:26:40;;;;;;;;;;;1.20;99.90;;;;;;5062714;28;19915;-70
2022/01/10 08:29:06;;;;;;;;;;;1.20;99.90;;;;;;5045068;28;19975;-70
2022/01/10 08:31:33;;;;;;;;;;;1.20;99.90;;;;;;5063059;28;20115;-70
2022/01/10 08:34:00;;;;;;;;;;;1.20;99.90;;;;;;5044933;28;19915;-70
2022/01/10 08:36:28;;;;;;;;;;;1.30;99.90;;;;;;5062335;28;19917;-70
2022/01/10 08:38:54;;;;;;;;;;;1.40;99.90;;;;;;5062374;28;19972;-70
2022/01/10 08:41:20;;;;;;;;;;;1.60;99.90;;;;;;5061599;28;19917;-70
2022/01/10 08:43:46;;;;;;;;;;;1.80;99.90;;;;;;5062317;28;20023;-69
2022/01/10 08:46:11;;;;;;;;;;;2.10;99.90;;;;;;5062190;28;19987;-69
2022/01/10 08:48:37;;;;;;;;;;;2.20;99.90;;;;;;5043917;28;20081;-69
2022/01/10 08:51:03;;;;;;;;;;;2.40;99.90;;;;;;5062197;28;19924;-69
2022/01/10 08:53:29;;;;;;;;;;;2.50;99.90;;;;;;5062237;28;19935;-68
2022/01/10 08:55:54;;;;;;;;;;;2.70;99.90;;;;;;5044046;28;19908;-69
2022/01/10 08:58:21;;;;;;;;;;;2.80;99.60;;;;;;5062285;28;20196;-69
2022/01/10 09:00:47;;;;;;;;;;;3.00;99.10;;;;;;5028404;28;20250;-69
2022/01/10 09:03:13;;;;;;;;;;;3.10;99.00;;;;;;5062177;28;19947;-68
2022/01/10 09:05:38;;;;;;;;;;;3.10;98.60;;;;;;5044375;28;19909;-69
2022/01/10 09:08:04;;;;;;;;;;;3.20;98.30;;;;;;5043615;28;19909;-69
2022/01/10 09:10:30;;;;;;;;;;;3.30;98.00;;;;;;5044432;28;19913;-69
2022/01/10 09:12:56;;;;;;;;;;;3.30;97.90;;;;;;5044320;28;19913;-69
2022/01/10 09:15:22;;;;;;;;;;;3.50;97.50;;;;;;5061816;28;19916;-69
2022/01/10 09:17:48;;;;;;;;;;;3.60;97.20;;;;;;5044570;28;19916;-69
2022/01/10 09:20:13;;;;;;;;;;;3.80;97.20;;;;;;5062078;28;19975;-69
2022/01/10 09:22:39;;;;;;;;;;;3.90;96.80;;;;;;5061921;28;20354;-69
2022/01/10 09:25:05;;;;;;;;;;;4.10;96.00;;;;;;5044204;28;19908;-69
2022/01/10 09:27:31;;;;;;;;;;;4.10;96.30;;;;;;5061985;28;20166;-69
2022/01/10 09:29:57;;;;;;;;;;;4.40;96.40;;;;;;5061920;28;19908;-69
2022/01/10 09:32:22;;;;;;;;;;;4.50;95.00;;;;;;5044498;28;20141;-69
2022/01/10 09:34:48;;;;;;;;;;;4.40;95.60;;;;;;5065213;28;19916;-68
2022/01/10 09:37:14;;;;;;;;;;;4.40;95.50;;;;;;5047888;28;19916;-69
2022/01/10 09:39:39;;;;;;;;;;;4.50;95.10;;;;;;5064301;28;19912;-69
2022/01/10 09:42:05;;;;;;;;;;;4.50;95.10;;;;;;5064676;28;19909;-70
2022/01/10 09:44:31;;;;;;;;;;;4.40;95.40;;;;;;5065326;28;19983;-70
2022/01/10 09:46:57;;;;;;;;;;;4.20;95.40;;;;;;5065544;28;19976;-70
2022/01/10 09:49:22;;;;;;;;;;;4.20;95.70;;;;;;5065529;28;19908;-69
2022/01/10 09:51:48;;;;;;;;;;;4.10;95.80;;;;;;5065452;28;20023;-69
2022/01/10 09:54:14;;;;;;;;;;;4.10;95.80;;;;;;5065265;28;20228;-70
2022/01/10 09:56:40;;;;;;;;;;;4.10;95.90;;;;;;5030813;28;19908;-69
2022/01/10 09:59:06;;;;;;;;;;;4.10;96.00;;;;;;5065506;28;19912;-69
2022/01/10 10:01:32;;;;;;;;;;;4.20;96.00;;;;;;5065310;28;20007;-70
2022/01/10 10:04:00;;;;;;;;;;;4.30;96.00;;;;;;5064815;28;19909;-69
2022/01/10 10:06:27;;;;;;;;;;;4.40;95.50;;;;;;5064794;28;20230;-70
2022/01/10 10:09:00;;;;;;;;;;;4.40;95.60;;;;;;5047403;28;19909;-69
2022/01/10 10:11:40;;;;;;;;;;;4.50;95.60;;;;;;5064725;28;19919;-69
2022/01/10 10:14:06;;;;;;;;;;;4.50;95.40;;;;;;5064875;28;19930;-70
2022/01/10 10:16:35;;;;;;;;;;;4.50;95.40;;;;;;5047122;28;19974;-70
2022/01/10 10:19:01;;;;;;;;;;;4.40;95.60;;;;;;5047292;28;19909;-70
2022/01/10 10:21:26;;;;;;;;;;;4.40;95.40;;;;;;5064864;28;19915;-69
2022/01/10 10:23:52;;;;;;;;;;;4.40;95.50;;;;;;5064875;28;19908;-70
2022/01/10 10:26:23;;;;;;;;;;;4.40;95.70;;;;;;5064484;28;19909;-69
2022/01/10 10:28:49;;;;;;;;;;;4.40;95.70;;;;;;5064739;28;20106;-70
2022/01/10 10:31:27;;;;;;;;;;;4.40;96.00;;;;;;5047108;28;19915;-70
2022/01/10 10:33:54;;;;;;;;;;;4.50;95.80;;;;;;5064685;28;19983;-70
2022/01/10 10:36:20;;;;;;;;;;;4.50;95.50;;;;;;5046909;28;20231;-69
2022/01/10 10:38:46;;;;;;;;;;;4.80;95.10;;;;;;5046812;28;19908;-70
2022/01/10 10:41:11;;;;;;;;;;;4.80;95.10;;;;;;5064514;28;19909;-70
2022/01/10 10:43:39;;;;;;;;;;;4.90;94.90;;;;;;5063500;28;19947;-70
2022/01/10 10:46:13;;;;;;;;;;;4.80;95.10;;;;;;5063357;28;19916;-70
2022/01/10 10:48:43;;;;;;;;;;;4.70;95.40;;;;;;5031042;28;19909;-70
2022/01/10 10:51:09;;;;;;;;;;;4.80;95.00;;;;;;5064113;28;19912;-72
2022/01/10 10:53:35;;;;;;;;;;;4.80;94.80;;;;;;5064171;28;19951;-69
2022/01/10 10:56:03;;;;;;;;;;;4.80;94.80;;;;;;5029861;28;19944;-69
2022/01/10 10:58:29;;;;;;;;;;;4.70;94.90;;;;;;5064209;28;19908;-72
2022/01/10 11:00:55;;;;;;;;;;;4.70;95.20;;;;;;5064133;28;19909;-70
2022/01/10 11:03:22;;;;;;;;;;;4.80;95.10;;;;;;5046426;28;19909;-69
2022/01/10 11:05:48;;;;;;;;;;;4.90;94.40;;;;;;5029799;28;20108;-70
2022/01/10 11:08:14;;;;;;;;;;;5.00;94.50;;;;;;5064109;28;19915;-70
2022/01/10 11:10:39;;;;;;;;;;;4.80;94.70;;;;;;5045328;28;19909;-70
2022/01/10 11:13:06;;;;;;;;;;;4.80;94.90;;;;;;5046203;28;19913;-70
2022/01/10 11:15:32;;;;;;;;;;;4.80;94.90;;;;;;5046045;28;19932;-70
2022/01/10 11:18:02;;;;;;;;;;;4.90;94.20;;;;;;5046099;28;20220;-69
2022/01/10 11:20:28;;;;;;;;;;;4.80;94.30;;;;;;5063601;28;19959;-69
2022/01/10 11:22:56;;;;;;;;;;;4.70;94.50;;;;;;5045775;28;20267;-70
2022/01/10 11:25:32;;;;;;;;;;;4.60;95.20;;;;;;5063166;28;20160;-70
2022/01/10 11:28:08;;;;;;;;;;;4.60;95.30;;;;;;5063119;28;19909;-72
2022/01/10 11:30:44;;;;;;;;;;;4.60;95.50;;;;;;5063590;28;19931;-71
2022/01/10 11:33:16;;;;;;;;;;;4.60;95.40;;;;;;5046121;28;19983;-70
2022/01/10 11:35:48;;;;;;;;;;;4.70;95.50;;;;;;5063089;28;19916;-70
2022/01/10 11:38:17;;;;;;;;;;;4.70;95.40;;;;;;5063397;28;19916;-70
2022/01/10 11:40:43;;;;;;;;;;;4.70;95.20;;;;;;5045189;28;19916;-70
2022/01/10 11:43:11;;;;;;;;;;;4.70;95.20;;;;;;5045576;28;19908;-70
2022/01/10 11:45:43;;;;;;;;;;;4.70;95.00;;;;;;5026611;28;19984;-70
2022/01/10 11:48:11;;;;;;;;;;;4.70;95.00;;;;;;5043317;28;19913;-70
2022/01/10 11:50:40;;;;;;;;;;;4.60;95.20;;;;;;5078270;23;19966;-72
2022/01/10 11:53:06;;;;;;;;;;;4.70;95.20;;;;;;5093158;28;19916;-71
2022/01/10 11:55:32;;;;;;;;;;;4.70;95.10;;;;;;5103304;28;20193;-71
2022/01/10 11:58:17;;;;;;;;;;;4.70;95.20;;;;;;5069448;28;19908;-71
2022/01/10 12:00:44;;;;;;;;;;;4.90;95.10;;;;;;5082350;28;19947;-71
2022/01/10 12:03:10;;;;;;;;;;;5.00;94.90;;;;;;5065596;28;19915;-71
2022/01/10 12:05:36;;;;;;;;;;;5.00;94.60;;;;;;5081276;28;19940;-72
2022/01/10 12:08:05;;;;;;;;;;;5.10;94.70;;;;;;5082374;28;20170;-73
2022/01/10 12:10:31;;;;;;;;;;;5.10;94.50;;;;;;5065386;28;20203;-71
2022/01/10 12:13:03;;;;;;;;;;;5.10;94.30;;;;;;5082243;28;20027;-72
2022/01/10 12:15:33;;;;;;;;;;;5.10;94.10;;;;;;5065216;28;19916;-72
2022/01/10 12:17:59;;;;;;;;;;;5.20;94.20;;;;;;5083116;28;19912;-72
2022/01/10 12:20:24;;;;;;;;;;;5.20;94.20;;;;;;5082708;28;19916;-72
2022/01/10 12:22:54;;;;;;;;;;;5.30;94.30;;;;;;5082752;28;19915;-72
2022/01/10 12:25:20;;;;;;;;;;;5.30;94.30;;;;;;5078573;28;19909;-72
2022/01/10 12:27:47;;;;;;;;;;;5.30;94.20;;;;;;5081819;28;20199;-72
2022/01/10 12:30:13;;;;;;;;;;;5.30;93.90;;;;;;5081731;28;19916;-70
2022/01/10 12:32:39;;;;;;;;;;;5.40;93.80;;;;;;5081513;28;20243;-71
2022/01/10 12:35:05;;;;;;;;;;;5.40;93.80;;;;;;5080832;28;19946;-71
2022/01/10 12:37:31;;;;;;;;;;;5.40;93.40;;;;;;5082143;28;19992;-70
2022/01/10 12:39:57;;;;;;;;;;;5.50;93.40;;;;;;5081549;28;19908;-71
2022/01/10 12:42:26;;;;;;;;;;;5.60;93.20;;;;;;5081719;28;20134;-70
2022/01/10 12:44:52;;;;;;;;;;;5.60;92.80;;;;;;5064906;28;19939;-71
2022/01/10 12:47:18;;;;;;;;;;;5.70;93.00;;;;;;5081836;28;19983;-72
2022/01/10 12:49:47;;;;;;;;;;;5.60;92.90;;;;;;5081647;28;20107;-71
2022/01/10 12:52:13;;;;;;;;;;;5.70;92.70;;;;;;5081619;28;20115;-71
2022/01/10 12:54:38;;;;;;;;;;;5.60;92.50;;;;;;5082599;28;19917;-71
2022/01/10 12:57:05;;;;;;;;;;;5.60;92.40;;;;;;5080532;28;19912;-71
2022/01/10 12:59:32;;;;;;;;;;;5.60;92.40;;;;;;5082857;28;19914;-71
2022/01/10 13:01:58;;;;;;;;;;;5.60;92.70;;;;;;5081520;28;20253;-71
2022/01/10 13:04:25;;;;;;;;;;;5.60;92.80;;;;;;5082338;28;19908;-71
2022/01/10 13:06:51;;;;;;;;;;;5.60;92.90;;;;;;5081387;28;19909;-71
2022/01/10 13:09:17;;;;;;;;;;;5.70;93.00;;;;;;5065765;28;19916;-71
2022/01/10 13:11:47;;;;;;;;;;;5.80;92.60;;;;;;5051059;28;19915;-71
2022/01/10 13:14:16;;;;;;;;;;;5.80;92.50;;;;;;5085614;28;19939;-71
2022/01/10 13:16:43;;;;;;;;;;;5.80;92.50;;;;;;5085192;28;19919;-72
2022/01/10 13:19:15;;;;;;;;;;;5.90;92.60;;;;;;5085544;28;19908;-71
2022/01/10 13:21:51;;;;;;;;;;;5.80;92.60;;;;;;5085372;28;19908;-71
2022/01/10 13:24:19;;;;;;;;;;;5.90;92.80;;;;;;5084961;28;19908;-63
2022/01/10 13:27:06;;;;;;;;;;;5.90;92.50;;;;;;5085961;28;20008;-67
2022/01/10 13:29:46;;;;;;;;;;;5.90;92.60;;;;;;5086382;28;19908;-74
2022/01/10 13:32:15;;;;;;;;;;;6.00;92.70;;;;;;5068483;28;19935;-75
2022/01/10 13:34:41;;;;;;;;;;;6.00;92.40;;;;;;5084999;28;19971;-74
2022/01/10 13:37:06;;;;;;;;;;;5.90;92.40;;;;;;5085088;28;19950;-76
2022/01/10 13:39:32;;;;;;;;;;;5.90;92.30;;;;;;5068557;28;19952;-75
2022/01/10 13:42:03;;;;;;;;;;;5.70;92.40;;;;;;5085420;28;19912;-74
2022/01/10 13:44:28;;;;;;;;;;;5.60;92.50;;;;;;5084441;28;20200;-75
2022/01/10 13:47:05;;;;;;;;;;;5.60;93.00;;;;;;5084396;28;19914;-74
2022/01/10 13:49:31;;;;;;;;;;;5.60;92.90;;;;;;5084980;28;19908;-74
2022/01/10 13:52:10;;;;;;;;;;;5.50;92.60;;;;;;5084721;28;19984;-74
2022/01/10 13:54:36;;;;;;;;;;;5.40;92.70;;;;;;5067938;28;20195;-76
2022/01/10 13:57:18;;;;;;;;;;;5.40;92.80;;;;;;5085478;28;19908;-75
2022/01/10 13:59:44;;;;;;;;;;;5.50;92.50;;;;;;5084646;28;19908;-74
2022/01/10 14:02:12;;;;;;;;;;;5.50;92.90;;;;;;5083885;28;19915;-74
2022/01/10 14:04:37;;;;;;;;;;;5.50;92.70;;;;;;5067954;28;19916;-75
2022/01/10 14:07:08;;;;;;;;;;;5.60;92.80;;;;;;5067256;28;19909;-75
2022/01/10 14:09:34;;;;;;;;;;;5.60;92.90;;;;;;5084451;28;20221;-75
2022/01/10 14:12:02;;;;;;;;;;;5.70;92.90;;;;;;5083799;28;19913;-75
2022/01/10 14:14:28;;;;;;;;;;;5.60;92.80;;;;;;5084276;28;19944;-76
2022/01/10 14:16:55;;;;;;;;;;;5.60;92.70;;;;;;5084490;28;19908;-75
2022/01/10 14:19:21;;;;;;;;;;;5.60;92.60;;;;;;5067333;28;19908;-75
2022/01/10 14:21:47;;;;;;;;;;;5.50;92.80;;;;;;5084031;28;19946;-75
2022/01/10 14:24:13;;;;;;;;;;;5.40;92.90;;;;;;5084605;28;19983;-75
2022/01/10 14:26:40;;;;;;;;;;;5.40;93.10;;;;;;5084191;28;19916;-75
2022/01/10 14:29:05;;;;;;;;;;;5.30;93.20;;;;;;5085485;28;19975;-75
2022/01/10 14:31:31;;;;;;;;;;;5.30;93.40;;;;;;5084055;28;19908;-75
2022/01/10 14:33:57;;;;;;;;;;;5.30;93.60;;;;;;5085037;28;19931;-75
2022/01/10 14:36:23;;;;;;;;;;;5.40;93.50;;;;;;5084022;28;19908;-75
2022/01/10 14:38:49;;;;;;;;;;;5.30;93.60;;;;;;5084271;28;19916;-75
2022/01/10 14:41:15;;;;;;;;;;;5.20;93.60;;;;;;5083899;28;19914;-75
2022/01/10 14:43:40;;;;;;;;;;;5.10;93.70;;;;;;5085273;28;19908;-75
2022/01/10 14:46:08;;;;;;;;;;;5.10;93.70;;;;;;5067148;28;20203;-75